Time;durP1;ratioP1;P1;durP2;ratioP2;P2;SDS_P1;SDS_P2;PMS_P1;PMS_P2;Temp;Humidity;BMP_temperature;BMP_pressure;BME280_temperature;BME280_humidity;BME280_pressure;Samples;Min_cycle;Max_cycle;Signal;HPM_P1;HPM_P2
2023/04/22 00:01:44;;;;;;;21.50;14.73;;;;;;;9.63;100.00;100390.50;5048559;28;20680;-65
2023/04/22 00:04:10;;;;;;;25.65;16.08;;;;;;;9.62;100.00;100383.59;5048529;28;20033;-66
2023/04/22 00:06:35;;;;;;;23.70;16.35;;;;;;;9.60;100.00;100382.78;5044235;28;20124;-65
2023/04/22 00:09:01;;;;;;;23.00;16.10;;;;;;;9.62;100.00;100380.16;5040777;28;20033;-65
2023/04/22 00:11:26;;;;;;;25.52;16.13;;;;;;;9.63;100.00;100377.59;5036552;28;20025;-65
2023/04/22 00:13:52;;;;;;;26.52;16.55;;;;;;;9.62;100.00;100373.28;5051323;28;20058;-65
2023/04/22 00:16:18;;;;;;;21.33;15.05;;;;;;;9.62;100.00;100375.00;5047060;28;20037;-65
2023/04/22 00:18:43;;;;;;;23.02;15.10;;;;;;;9.59;100.00;100360.41;5038675;28;20691;-65
2023/04/22 00:21:09;;;;;;;20.13;14.60;;;;;;;9.59;100.00;100370.75;5051515;28;20105;-65
2023/04/22 00:23:35;;;;;;;20.35;14.48;;;;;;;9.58;100.00;100374.19;5036586;28;20162;-65
2023/04/22 00:26:00;;;;;;;15.00;11.27;;;;;;;9.57;100.00;100358.69;5028958;28;20055;-65
2023/04/22 00:28:26;;;;;;;14.70;9.07;;;;;;;9.57;100.00;100367.31;5036277;28;20509;-65
2023/04/22 00:30:51;;;;;;;13.50;9.13;;;;;;;9.57;100.00;100367.31;5040633;28;20529;-65
2023/04/22 00:33:17;;;;;;;13.20;8.10;;;;;;;9.57;100.00;100369.03;5053967;28;20056;-65
2023/04/22 00:35:45;;;;;;;9.15;7.07;;;;;;;9.57;100.00;100363.84;5043917;28;20033;-65
2023/04/22 00:38:10;;;;;;;12.43;7.30;;;;;;;9.58;100.00;100369.03;5049530;28;20482;-65
2023/04/22 00:40:36;;;;;;;10.45;7.03;;;;;;;9.57;100.00;100364.75;5044266;28;20037;-65
2023/04/22 00:43:01;;;;;;;10.65;6.63;;;;;;;9.56;100.00;100367.28;5056371;28;20039;-65
2023/04/22 00:45:27;;;;;;;9.18;5.60;;;;;;;9.54;100.00;100372.50;5052448;28;20505;-66
2023/04/22 00:47:53;;;;;;;8.48;5.53;;;;;;;9.55;100.00;100374.22;5034663;28;20036;-65
2023/04/22 00:50:18;;;;;;;9.23;5.85;;;;;;;9.54;100.00;100369.91;5039055;28;20029;-66
2023/04/22 00:52:44;;;;;;;9.18;6.57;;;;;;;9.53;100.00;100378.50;5036976;28;20556;-66
2023/04/22 00:55:10;;;;;;;10.52;6.93;;;;;;;9.51;100.00;100375.09;5047127;28;20121;-65
2023/04/22 00:57:36;;;;;;;8.02;5.93;;;;;;;9.51;100.00;100379.41;5048810;28;20219;-66
2023/04/22 01:00:04;;;;;;;9.95;6.63;;;;;;;9.49;100.00;100374.28;5039942;28;20059;-65
2023/04/22 01:02:29;;;;;;;7.38;5.70;;;;;;;9.51;100.00;100367.38;5043158;28;20039;-65
2023/04/22 01:04:55;;;;;;;8.90;6.40;;;;;;;9.51;100.00;100363.91;5050803;28;20036;-65
2023/04/22 01:07:20;;;;;;;8.95;6.45;;;;;;;9.52;100.00;100371.66;5047769;28;20956;-65
2023/04/22 01:09:46;;;;;;;9.02;6.97;;;;;;;9.53;100.00;100367.31;5041946;28;20043;-65
2023/04/22 01:12:11;;;;;;;10.05;6.38;;;;;;;9.52;100.00;100371.66;5049617;28;20401;-65
2023/04/22 01:14:37;;;;;;;10.50;6.78;;;;;;;9.52;100.00;100365.63;5046111;28;20116;-65
2023/04/22 01:17:03;;;;;;;11.35;6.72;;;;;;;9.52;100.00;100360.47;5049586;28;20025;-65
2023/04/22 01:19:28;;;;;;;9.98;6.70;;;;;;;9.52;100.00;100370.81;5038688;28;20053;-65
2023/04/22 01:21:54;;;;;;;8.93;7.13;;;;;;;9.52;100.00;100369.09;5048617;28;20040;-66
2023/04/22 01:24:20;;;;;;;8.98;6.35;;;;;;;9.54;100.00;100374.22;5054146;28;20139;-66
2023/04/22 01:26:47;;;;;;;9.77;6.53;;;;;;;9.57;100.00;100369.91;5048288;28;20032;-66
2023/04/22 01:29:13;;;;;;;8.25;6.18;;;;;;;9.60;100.00;100364.72;5058523;28;20496;-66
2023/04/22 01:31:39;;;;;;;13.80;7.78;;;;;;;9.64;100.00;100368.13;5059410;28;20037;-65
2023/04/22 01:34:04;;;;;;;10.98;7.40;;;;;;;9.66;100.00;100367.22;5071634;28;20368;-65
2023/04/22 01:36:31;;;;;;;14.82;7.93;;;;;;;9.68;100.00;100368.06;5055447;28;20123;-65
2023/04/22 01:38:57;;;;;;;9.57;6.72;;;;;;;9.72;99.40;100368.03;5038304;28;20044;-65
2023/04/22 01:41:23;;;;;;;12.05;8.10;;;;;;;9.77;99.83;100364.50;5045302;28;20123;-65
2023/04/22 01:43:51;;;;;;;12.57;8.02;;;;;;;9.81;99.17;100365.34;5044836;28;20044;-65
2023/04/22 01:46:17;;;;;;;11.68;7.57;;;;;;;9.84;99.37;100363.59;5042446;28;20036;-64
2023/04/22 01:48:43;;;;;;;10.30;7.55;;;;;;;9.87;98.59;100365.28;5046620;28;20041;-65
2023/04/22 01:51:08;;;;;;;10.45;7.32;;;;;;;9.87;98.59;100362.69;5043322;28;20040;-64
2023/04/22 01:53:35;;;;;;;8.05;6.55;;;;;;;9.88;98.63;100357.50;5043752;28;20047;-64
2023/04/22 01:56:01;;;;;;;11.68;8.00;;;;;;;9.90;98.31;100355.78;5034162;28;20048;-65
2023/04/22 01:58:29;;;;;;;10.93;6.40;;;;;;;9.92;97.68;100354.00;5046385;28;20040;-64
2023/04/22 02:00:55;;;;;;;10.45;7.10;;;;;;;9.93;97.92;100354.88;5042887;28;20055;-64
2023/04/22 02:03:20;;;;;;;9.18;5.93;;;;;;;9.94;98.20;100347.09;5041999;28;20688;-65
2023/04/22 02:05:45;;;;;;;9.77;6.45;;;;;;;9.96;98.40;100337.63;5045173;28;20040;-64
2023/04/22 02:08:11;;;;;;;9.05;6.18;;;;;;;9.98;98.52;100340.16;5052040;28;20075;-64
2023/04/22 02:10:36;;;;;;;8.77;5.85;;;;;;;9.99;97.96;100345.31;5051246;28;20101;-64
2023/04/22 02:13:02;;;;;;;9.20;5.88;;;;;;;10.01;97.50;100345.28;5049811;28;20422;-65
2023/04/22 02:15:27;;;;;;;7.47;5.63;;;;;;;10.05;97.84;100334.06;5051066;28;20041;-65
2023/04/22 02:17:52;;;;;;;8.27;5.25;;;;;;;10.04;97.59;100335.78;5059796;28;20047;-65
2023/04/22 02:20:18;;;;;;;7.00;5.13;;;;;;;10.03;97.76;100330.66;5041306;28;20032;-65
2023/04/22 02:22:43;;;;;;;6.93;4.93;;;;;;;10.02;96.97;100340.13;5058612;28;20036;-65
2023/04/22 02:25:11;;;;;;;8.07;5.25;;;;;;;10.02;97.64;100337.53;5040519;28;20129;-65
2023/04/22 02:27:37;;;;;;;11.10;5.30;;;;;;;10.04;97.78;100342.66;5049869;28;20049;-65
2023/04/22 02:30:03;;;;;;;7.88;4.68;;;;;;;10.04;97.62;100338.38;5042388;28;20033;-65
2023/04/22 02:32:28;;;;;;;6.72;4.75;;;;;;;10.05;97.77;100339.22;5062449;28;20058;-65
2023/04/22 02:34:54;;;;;;;8.10;5.28;;;;;;;10.05;97.29;100332.34;5059793;28;20405;-65
2023/04/22 02:37:21;;;;;;;7.30;4.82;;;;;;;10.04;97.35;100330.63;5055213;28;20061;-65
2023/04/22 02:39:47;;;;;;;8.13;5.28;;;;;;;10.04;97.85;100340.09;5061174;28;20632;-65
2023/04/22 02:42:12;;;;;;;7.47;5.40;;;;;;;10.04;96.97;100338.38;5062309;28;20044;-65
2023/04/22 02:44:37;;;;;;;7.35;5.03;;;;;;;10.04;97.35;100338.38;5063256;28;20040;-65
2023/04/22 02:47:03;;;;;;;7.53;5.15;;;;;;;10.06;96.46;100335.78;5060976;28;20150;-65
2023/04/22 02:49:28;;;;;;;6.63;4.72;;;;;;;10.06;96.55;100331.44;5060073;28;20044;-65
2023/04/22 02:51:54;;;;;;;6.82;4.45;;;;;;;10.08;96.69;100332.31;5058561;28;20140;-65
2023/04/22 02:54:19;;;;;;;9.15;4.72;;;;;;;10.13;95.98;100324.47;5052136;28;20093;-65
2023/04/22 02:56:45;;;;;;;7.10;5.40;;;;;;;10.17;96.04;100319.25;5043146;28;20411;-65
2023/04/22 02:59:10;;;;;;;13.82;5.10;;;;;;;10.21;96.22;100314.88;5046663;28;20055;-66
2023/04/22 03:01:35;;;;;;;8.05;4.30;;;;;;;10.22;96.12;100322.63;5058948;28;20075;-66
2023/04/22 03:04:01;;;;;;;7.68;5.45;;;;;;;10.27;96.05;100319.13;5060283;28;20041;-65
2023/04/22 03:06:26;;;;;;;6.45;4.60;;;;;;;10.31;95.51;100315.63;5052734;28;20068;-66
2023/04/22 03:08:51;;;;;;;5.63;4.40;;;;;;;10.33;94.48;100313.88;5037783;28;20032;-65
2023/04/22 03:11:17;;;;;;;6.13;4.10;;;;;;;10.32;94.99;100318.19;5055594;28;20045;-65
2023/04/22 03:13:42;;;;;;;7.13;4.32;;;;;;;10.35;94.75;100317.28;5058147;28;20406;-65
2023/04/22 03:16:08;;;;;;;7.85;4.15;;;;;;;10.38;95.21;100312.09;5056426;28;20036;-65
2023/04/22 03:18:33;;;;;;;8.95;4.57;;;;;;;10.41;95.51;100315.47;5057082;28;20456;-65
2023/04/22 03:20:59;;;;;;;6.50;4.75;;;;;;;10.44;94.93;100317.16;5057665;28;20063;-65
2023/04/22 03:23:25;;;;;;;5.43;4.20;;;;;;;10.45;94.72;100314.53;5043757;28;20071;-65
2023/04/22 03:25:50;;;;;;;7.70;4.55;;;;;;;10.47;95.02;100315.38;5046527;28;20885;-65
2023/04/22 03:28:16;;;;;;;6.55;4.38;;;;;;;10.49;95.06;100317.94;5032337;28;20788;-65
2023/04/22 03:30:41;;;;;;;7.00;4.88;;;;;;;10.48;94.87;100314.50;5042196;28;20040;-65
2023/04/22 03:33:07;;;;;;;7.85;4.75;;;;;;;10.47;94.90;100319.69;5043003;28;20087;-65
2023/04/22 03:35:32;;;;;;;6.38;4.43;;;;;;;10.44;94.51;100315.44;5039185;28;20045;-65
2023/04/22 03:37:57;;;;;;;7.50;4.50;;;;;;;10.44;94.86;100315.44;5036805;28;20576;-65
2023/04/22 03:40:23;;;;;;;5.30;4.05;;;;;;;10.45;94.89;100321.44;5038815;28;20040;-65
2023/04/22 03:42:48;;;;;;;7.43;4.40;;;;;;;10.44;95.49;100320.59;5037693;28;20036;-65
2023/04/22 03:45:14;;;;;;;9.35;4.95;;;;;;;10.48;95.21;100316.22;5043884;28;20044;-65
2023/04/22 03:47:39;;;;;;;6.10;4.63;;;;;;;10.49;94.81;100313.63;5058746;28;20068;-65
2023/04/22 03:50:05;;;;;;;13.35;5.00;;;;;;;10.50;94.42;100299.84;5046167;28;20021;-65
2023/04/22 03:52:31;;;;;;;6.50;4.10;;;;;;;10.53;94.30;100298.94;5045719;28;20072;-65
2023/04/22 03:54:56;;;;;;;7.15;3.95;;;;;;;10.55;94.00;100292.00;5046079;28;20034;-65
2023/04/22 03:57:21;;;;;;;6.15;4.30;;;;;;;10.55;93.87;100298.03;5034860;28;20141;-65
2023/04/22 03:59:47;;;;;;;5.60;4.25;;;;;;;10.55;94.13;100294.59;5034495;28;20124;-66
2023/04/22 04:02:12;;;;;;;5.97;4.50;;;;;;;10.54;93.57;100285.09;5042400;28;20220;-65
2023/04/22 04:04:38;;;;;;;7.65;4.30;;;;;;;10.54;94.21;100279.94;5041462;28;20056;-65
2023/04/22 04:07:03;;;;;;;6.55;3.70;;;;;;;10.52;93.57;100279.13;5041105;28;20835;-65
2023/04/22 04:09:28;;;;;;;6.10;4.38;;;;;;;10.51;93.51;100277.41;5048547;28;20044;-65
2023/04/22 04:11:55;;;;;;;8.38;4.97;;;;;;;10.54;92.58;100277.34;5066587;28;20161;-65
2023/04/22 04:14:20;;;;;;;6.63;4.20;;;;;;;10.53;92.31;100273.94;5060369;28;20057;-65
2023/04/22 04:16:46;;;;;;;5.68;3.47;;;;;;;10.53;92.74;100273.09;5044005;28;20032;-65
2023/04/22 04:19:11;;;;;;;5.32;3.70;;;;;;;10.50;92.45;100276.56;5056431;28;20089;-65
2023/04/22 04:21:38;;;;;;;5.78;3.85;;;;;;;10.50;93.06;100270.56;5054859;28;20071;-65
2023/04/22 04:24:05;;;;;;;7.47;4.50;;;;;;;10.47;93.71;100271.47;5031591;28;20043;-65
2023/04/22 04:26:31;;;;;;;4.18;3.50;;;;;;;10.43;93.55;100274.09;5055005;28;20119;-65
2023/04/22 04:28:56;;;;;;;6.22;4.20;;;;;;;10.41;93.50;100273.28;5032269;28;20039;-65
2023/04/22 04:31:23;;;;;;;6.00;4.30;;;;;;;10.45;93.35;100272.34;5044418;28;20049;-65
2023/04/22 04:33:49;;;;;;;9.02;4.97;;;;;;;10.46;93.33;100259.41;5051110;28;20048;-65
2023/04/22 04:36:14;;;;;;;7.70;4.70;;;;;;;10.53;92.37;100266.19;5041161;28;20033;-65
2023/04/22 04:38:40;;;;;;;7.03;4.53;;;;;;;10.59;91.43;100257.50;5041139;28;20086;-65
2023/04/22 04:41:08;;;;;;;6.90;4.47;;;;;;;10.65;90.98;100258.22;5044782;28;20374;-65
2023/04/22 04:43:34;;;;;;;7.43;4.40;;;;;;;10.68;91.34;100258.16;5043413;28;20083;-65
2023/04/22 04:46:00;;;;;;;6.55;4.30;;;;;;;10.71;91.17;100265.88;5032087;28;20040;-65
2023/04/22 04:48:25;;;;;;;4.70;3.75;;;;;;;10.73;90.17;100252.94;5035624;28;20379;-65
2023/04/22 04:50:53;;;;;;;6.20;4.60;;;;;;;10.73;90.53;100243.44;5042258;28;20114;-65
2023/04/22 04:53:20;;;;;;;6.70;4.55;;;;;;;10.71;90.65;100252.94;5046578;28;20028;-64
2023/04/22 04:55:46;;;;;;;6.90;4.25;;;;;;;10.72;90.90;100246.03;5039243;28;20033;-65
2023/04/22 04:58:11;;;;;;;6.53;4.65;;;;;;;10.74;90.47;100246.88;5047112;28;20040;-65
2023/04/22 05:00:37;;;;;;;5.75;3.72;;;;;;;10.73;91.09;100252.94;5041305;28;20041;-64
2023/04/22 05:03:02;;;;;;;4.90;3.67;;;;;;;10.73;91.85;100248.63;5042645;28;20075;-65
2023/04/22 05:05:28;;;;;;;5.32;3.90;;;;;;;10.73;91.43;100240.00;5043727;28;20056;-65
2023/04/22 05:07:53;;;;;;;6.72;4.35;;;;;;;10.74;92.21;100244.31;5037871;28;20094;-65
2023/04/22 05:10:20;;;;;;;6.63;3.92;;;;;;;10.81;91.78;100245.88;5039295;28;20714;-65
2023/04/22 05:12:46;;;;;;;5.78;3.58;;;;;;;10.88;91.30;100246.63;5044367;28;20068;-65
2023/04/22 05:15:12;;;;;;;4.32;3.60;;;;;;;10.99;89.96;100248.16;5038608;28;20041;-64
2023/04/22 05:17:38;;;;;;;5.90;3.40;;;;;;;11.09;90.27;100252.28;5042254;28;20045;-65
2023/04/22 05:20:03;;;;;;;6.13;3.60;;;;;;;11.21;89.54;100246.03;5044425;28;20130;-65
2023/04/22 05:22:29;;;;;;;6.97;3.58;;;;;;;11.32;89.09;100244.06;5053559;28;20044;-64
2023/04/22 05:24:54;;;;;;;5.60;3.08;;;;;;;11.46;88.23;100247.25;5054841;28;20393;-64
2023/04/22 05:27:20;;;;;;;4.10;3.05;;;;;;;11.66;86.12;100245.09;5056972;28;20371;-65
2023/04/22 05:29:45;;;;;;;3.35;2.40;;;;;;;11.86;84.09;100242.97;5055836;28;20131;-65
2023/04/22 05:32:11;;;;;;;5.95;3.05;;;;;;;12.03;83.25;100234.81;5040760;28;20025;-65
2023/04/22 05:34:36;;;;;;;3.92;2.70;;;;;;;12.20;82.24;100244.78;5042668;28;20405;-65
2023/04/22 05:37:02;;;;;;;3.90;2.70;;;;;;;12.33;80.37;100243.59;5050179;28;20036;-65
2023/04/22 05:39:28;;;;;;;4.38;3.33;;;;;;;12.49;79.67;100238.91;5055423;28;20106;-65
2023/04/22 05:41:54;;;;;;;4.15;2.85;;;;;;;12.56;79.41;100249.09;5057382;28;20040;-65
2023/04/22 05:44:19;;;;;;;2.70;2.40;;;;;;;12.63;78.88;100239.41;5054938;28;20100;-65
2023/04/22 05:46:45;;;;;;;3.33;2.45;;;;;;;12.71;78.73;100240.94;5055492;28;20046;-65
2023/04/22 05:49:11;;;;;;;4.95;2.50;;;;;;;12.75;78.28;100245.16;5044985;28;20033;-66
2023/04/22 05:51:36;;;;;;;4.60;2.60;;;;;;;12.79;78.31;100236.38;5037484;28;20288;-65
2023/04/22 05:54:02;;;;;;;4.03;2.53;;;;;;;12.78;78.46;100224.31;5031065;28;20060;-65
2023/04/22 05:56:27;;;;;;;6.72;2.50;;;;;;;12.72;80.54;100245.22;5037107;28;20114;-65
2023/04/22 05:58:53;;;;;;;3.28;2.60;;;;;;;12.61;82.04;100255.03;5027907;28;20041;-65
2023/04/22 06:01:18;;;;;;;3.20;2.90;;;;;;;12.54;81.94;100244.81;5033990;28;20041;-65
2023/04/22 06:03:43;;;;;;;3.95;3.22;;;;;;;12.46;82.71;100242.44;5040142;28;20095;-65
2023/04/22 06:06:09;;;;;;;3.67;2.47;;;;;;;12.45;82.89;100239.00;5044110;28;20034;-65
2023/04/22 06:08:35;;;;;;;3.80;2.83;;;;;;;12.48;82.58;100242.38;5029449;28;20078;-65
2023/04/22 06:11:00;;;;;;;4.10;3.15;;;;;;;12.51;82.12;100234.53;5038249;28;20629;-65
2023/04/22 06:13:26;;;;;;;5.85;2.97;;;;;;;12.59;80.88;100227.41;5033608;28;20039;-64
2023/04/22 06:15:52;;;;;;;4.78;2.50;;;;;;;12.70;80.36;100238.38;5039687;28;20067;-64
2023/04/22 06:18:17;;;;;;;4.32;2.25;;;;;;;12.79;80.14;100240.75;5035121;28;20037;-64
2023/04/22 06:20:42;;;;;;;3.92;2.90;;;;;;;12.86;79.82;100239.69;5037555;28;20036;-65
2023/04/22 06:23:08;;;;;;;4.88;2.90;;;;;;;12.94;79.11;100237.72;5040377;28;20074;-64
2023/04/22 06:25:33;;;;;;;4.45;2.80;;;;;;;12.98;80.03;100242.81;5065784;28;20072;-65
2023/04/22 06:27:59;;;;;;;8.32;3.00;;;;;;;13.02;79.74;100237.56;5042219;28;20041;-65
2023/04/22 06:30:25;;;;;;;3.47;2.63;;;;;;;13.08;78.73;100246.06;5037074;28;20043;-64
2023/04/22 06:32:51;;;;;;;3.90;2.55;;;;;;;13.15;78.42;100246.75;5042625;28;20036;-65
2023/04/22 06:35:16;;;;;;;4.38;3.00;;;;;;;13.25;76.69;100220.47;5038479;28;20500;-65
2023/04/22 06:37:42;;;;;;;6.10;2.50;;;;;;;13.37;76.13;100233.13;5044177;28;20517;-65
2023/04/22 06:40:08;;;;;;;4.35;3.08;;;;;;;13.59;75.12;100232.50;5042871;28;20680;-65
2023/04/22 06:42:33;;;;;;;4.32;2.85;;;;;;;13.80;74.87;100217.13;5049413;28;20040;-65
2023/04/22 06:44:59;;;;;;;8.75;2.90;;;;;;;14.09;73.13;100200.66;5053194;28;20037;-65
2023/04/22 06:47:24;;;;;;;3.15;2.20;;;;;;;14.39;72.18;100185.84;5038862;28;20192;-65
2023/04/22 06:49:50;;;;;;;2.90;2.38;;;;;;;14.64;71.05;100173.69;5061055;28;20032;-65
2023/04/22 06:52:15;;;;;;;3.30;2.22;;;;;;;14.80;71.15;100180.09;5058270;28;20497;-65
2023/04/22 06:54:41;;;;;;;3.13;2.35;;;;;;;14.95;70.07;100168.28;5048341;28;20485;-65
2023/04/22 06:57:06;;;;;;;3.10;2.58;;;;;;;15.02;69.52;100157.59;5031818;28;20044;-65
2023/04/22 06:59:32;;;;;;;4.20;2.10;;;;;;;15.04;69.14;100152.34;5054642;28;20036;-65
2023/04/22 07:01:58;;;;;;;3.90;2.97;;;;;;;15.07;69.46;100178.25;5063590;28;20029;-65
2023/04/22 07:04:23;;;;;;;3.42;2.20;;;;;;;15.08;68.29;100159.13;5062112;28;20065;-65
2023/04/22 07:06:49;;;;;;;4.28;2.50;;;;;;;15.05;68.62;100162.69;5058144;28;20033;-65
2023/04/22 07:09:14;;;;;;;4.97;2.55;;;;;;;15.04;68.40;100170.56;5061319;28;20227;-65
2023/04/22 07:11:40;;;;;;;5.03;2.25;;;;;;;15.05;68.82;100172.25;5052081;28;20027;-65
2023/04/22 07:14:05;;;;;;;6.20;2.95;;;;;;;15.06;69.65;100180.00;5054654;28;20032;-65
2023/04/22 07:16:30;;;;;;;3.85;2.80;;;;;;;15.12;67.85;100153.75;5041559;28;20095;-65
2023/04/22 07:18:56;;;;;;;9.10;2.85;;;;;;;15.20;68.35;100150.88;5056117;28;20707;-65
2023/04/22 07:21:21;;;;;;;3.35;2.08;;;;;;;15.31;68.00;100147.88;5061957;28;20037;-65
2023/04/22 07:23:47;;;;;;;4.35;2.30;;;;;;;15.36;68.18;100146.78;5060597;28;20071;-65
2023/04/22 07:26:13;;;;;;;3.28;2.25;;;;;;;15.43;67.82;100144.81;5050502;28;20494;-66
2023/04/22 07:28:38;;;;;;;3.90;2.58;;;;;;;15.55;66.34;100121.72;5052586;28;20445;-66
2023/04/22 07:31:04;;;;;;;5.22;2.60;;;;;;;15.61;66.56;100126.69;5022536;28;20061;-66
2023/04/22 07:33:29;;;;;;;5.45;2.65;;;;;;;15.71;65.81;100128.09;5042603;28;20037;-66
2023/04/22 07:35:55;;;;;;;3.35;2.53;;;;;;;15.79;65.40;100124.34;5042628;28;20043;-66
2023/04/22 07:38:20;;;;;;;4.35;2.20;;;;;;;15.86;65.97;100108.38;5040559;28;20025;-65
2023/04/22 07:40:45;;;;;;;4.72;2.47;;;;;;;15.95;66.14;100125.41;5055893;28;20140;-65
2023/04/22 07:43:11;;;;;;;3.00;2.25;;;;;;;16.02;64.66;100095.56;5047268;28;20036;-66
2023/04/22 07:45:36;;;;;;;3.65;2.40;;;;;;;16.08;64.16;100096.19;5038319;28;20032;-65
2023/04/22 07:48:03;;;;;;;3.30;2.15;;;;;;;16.17;64.08;100081.91;5040570;28;20250;-65
2023/04/22 07:50:28;;;;;;;4.70;2.35;;;;;;;16.29;63.94;100076.19;5046093;28;20021;-65
2023/04/22 07:52:54;;;;;;;4.13;2.47;;;;;;;16.42;63.36;100071.25;5037877;28;20033;-65
2023/04/22 07:55:19;;;;;;;3.33;2.28;;;;;;;16.56;62.57;100056.69;5032699;28;20041;-66
2023/04/22 07:57:44;;;;;;;3.55;1.98;;;;;;;16.74;62.15;100039.41;5038856;28;20025;-65
2023/04/22 08:00:10;;;;;;;2.30;1.80;;;;;;;16.85;62.13;100040.66;5042685;28;20037;-65
2023/04/22 08:02:36;;;;;;;2.72;1.77;;;;;;;17.02;61.59;100039.00;5043425;28;20387;-66
2023/04/22 08:05:01;;;;;;;5.47;2.00;;;;;;;17.15;60.90;100027.09;5040862;28;20064;-65
2023/04/22 08:07:27;;;;;;;4.63;2.00;;;;;;;17.26;59.83;100006.53;5037365;28;20592;-66
2023/04/22 08:09:54;;;;;;;3.53;1.98;;;;;;;17.35;59.96;100013.94;5038769;28;20068;-67
2023/04/22 08:12:20;;;;;;;5.90;2.08;;;;;;;17.44;58.89;99997.81;5034931;28;20041;-66
2023/04/22 08:14:45;;;;;;;6.07;2.30;;;;;;;17.52;58.71;99984.34;5038503;28;21766;-66
2023/04/22 08:17:10;;;;;;;2.08;1.83;;;;;;;17.64;59.15;100002.91;5061272;28;20347;-66
2023/04/22 08:19:36;;;;;;;5.43;2.17;;;;;;;17.82;57.46;99968.00;5036923;28;20065;-66
2023/04/22 08:22:01;;;;;;;2.70;1.88;;;;;;;17.97;56.37;99953.34;5038854;28;20045;-67
2023/04/22 08:24:27;;;;;;;3.67;2.00;;;;;;;18.17;57.88;99978.44;5044612;28;20047;-66
2023/04/22 08:26:52;;;;;;;4.85;1.83;;;;;;;18.38;55.96;99945.94;5060033;28;20033;-66
2023/04/22 08:29:18;;;;;;;5.85;1.90;;;;;;;18.50;55.46;99943.50;5054578;28;20032;-66
2023/04/22 08:31:43;;;;;;;3.92;2.15;;;;;;;18.66;54.17;99917.38;5040897;28;20047;-66
2023/04/22 08:34:08;;;;;;;3.00;1.90;;;;;;;18.80;55.21;99940.16;5040344;28;20033;-66
2023/04/22 08:36:34;;;;;;;3.60;1.70;;;;;;;18.89;54.51;99934.44;5041162;28;20059;-67
2023/04/22 08:39:00;;;;;;;3.92;1.70;;;;;;;19.00;54.22;99939.91;5040390;28;20544;-66
2023/04/22 08:41:25;;;;;;;3.15;1.52;;;;;;;19.13;53.60;99924.38;5055497;28;20059;-66
2023/04/22 08:43:54;;;;;;;2.72;1.83;;;;;;;19.22;53.79;99922.06;5040213;28;20041;-66
2023/04/22 08:46:22;;;;;;;2.88;1.63;;;;;;;19.31;52.87;99911.06;5039621;28;20040;-66
2023/04/22 08:48:49;;;;;;;2.40;1.75;;;;;;;19.44;51.66;99895.47;5039920;28;20095;-65
2023/04/22 08:51:16;;;;;;;3.40;1.80;;;;;;;19.59;52.74;99912.94;5046483;28;20041;-66
2023/04/22 08:53:45;;;;;;;2.80;1.63;;;;;;;19.67;51.88;99910.69;5058168;28;20028;-66
2023/04/22 08:56:12;;;;;;;5.00;1.60;;;;;;;19.77;51.74;99905.75;5046127;28;20059;-66
2023/04/22 08:58:39;;;;;;;3.22;1.42;;;;;;;19.79;51.68;99901.28;5037987;28;20174;-66
2023/04/22 09:01:06;;;;;;;2.97;1.50;;;;;;;19.87;50.06;99868.41;5037567;28;20506;-66
2023/04/22 09:03:33;;;;;;;2.53;1.58;;;;;;;19.83;49.39;99873.97;5048031;28;20040;-65
2023/04/22 09:06:04;;;;;;;3.25;1.80;;;;;;;19.89;48.55;99855.22;5059743;28;20033;-66
2023/04/22 09:08:31;;;;;;;3.70;1.67;;;;;;;19.92;49.05;99858.47;5038150;28;20053;-66
2023/04/22 09:10:57;;;;;;;2.22;1.60;;;;;;;19.93;49.46;99864.56;5038450;28;20045;-66
2023/04/22 09:13:24;;;;;;;5.43;1.75;;;;;;;19.79;49.50;99851.47;5037113;28;20811;-66
2023/04/22 09:15:50;;;;;;;2.75;1.77;;;;;;;19.65;50.20;99867.97;5039207;28;20037;-66
2023/04/22 09:18:18;;;;;;;3.58;1.88;;;;;;;19.53;50.46;99879.22;5039361;28;20565;-66
2023/04/22 09:20:47;;;;;;;3.33;1.70;;;;;;;19.47;50.77;99892.69;5036742;28;20025;-66
2023/04/22 09:23:13;;;;;;;3.00;1.80;;;;;;;19.52;50.99;99894.09;5047393;28;20070;-66
2023/04/22 09:25:39;;;;;;;2.67;1.65;;;;;;;19.75;49.80;99869.13;5035055;28;20037;-66
2023/04/22 09:28:05;;;;;;;2.85;1.45;;;;;;;20.01;49.76;99876.28;5041594;28;20501;-66
2023/04/22 09:30:31;;;;;;;3.08;1.88;;;;;;;20.20;49.63;99868.13;5041080;28;20577;-66
2023/04/22 09:33:03;;;;;;;2.35;1.80;;;;;;;20.29;48.98;99845.72;5040568;28;20037;-65
2023/04/22 09:35:39;;;;;;;1.67;1.45;;;;;;;20.40;49.42;99856.38;5039565;28;20025;-65
2023/04/22 09:38:09;;;;;;;2.85;1.70;;;;;;;20.48;48.05;99835.75;5046793;28;20045;-65
2023/04/22 09:40:36;;;;;;;2.38;1.50;;;;;;;20.53;48.41;99849.44;5042241;28;20037;-65
2023/04/22 09:43:05;;;;;;;2.63;1.65;;;;;;;20.72;48.55;99862.28;5033172;28;20064;-66
2023/04/22 09:45:32;;;;;;;4.10;1.60;;;;;;;20.88;47.20;99832.28;5042093;28;20041;-66
2023/04/22 09:48:14;;;;;;;5.07;1.80;;;;;;;21.04;47.08;99832.97;5058616;28;20071;-65
2023/04/22 09:50:43;;;;;;;2.63;1.60;;;;;;;21.21;48.47;99858.97;5037934;28;20670;-66
2023/04/22 09:53:10;;;;;;;4.95;1.67;;;;;;;21.15;46.97;99830.47;5038118;28;20029;-66
2023/04/22 09:55:43;;;;;;;2.60;1.60;;;;;;;21.27;45.43;99807.75;5038239;28;20095;-66
2023/04/22 09:58:10;;;;;;;3.00;1.60;;;;;;;21.42;45.86;99827.75;5029129;28;20162;-66
2023/04/22 10:00:44;;;;;;;3.08;1.65;;;;;;;21.41;44.53;99814.72;5036523;28;20044;-66
2023/04/22 10:03:10;;;;;;;3.53;1.48;;;;;;;21.50;44.62;99801.78;5045553;28;20048;-66
2023/04/22 10:05:36;;;;;;;3.95;1.98;;;;;;;21.58;45.07;99814.47;5063734;28;20662;-67
2023/04/22 10:08:05;;;;;;;8.05;1.50;;;;;;;21.78;44.59;99814.75;5057785;28;20145;-65
2023/04/22 10:10:33;;;;;;;1.85;1.42;;;;;;;21.98;44.76;99817.78;5041337;28;20056;-66
2023/04/22 10:12:59;;;;;;;4.90;1.83;;;;;;;22.22;43.95;99818.69;5040110;28;20040;-65
2023/04/22 10:15:29;;;;;;;2.63;1.50;;;;;;;22.21;43.70;99809.94;5043333;28;20151;-67
2023/04/22 10:17:56;;;;;;;3.08;1.60;;;;;;;22.29;43.63;99814.69;5045231;28;20045;-66
2023/04/22 10:20:24;;;;;;;3.03;1.58;;;;;;;21.97;43.54;99809.03;5039274;28;20187;-67
2023/04/22 10:22:51;;;;;;;3.83;1.75;;;;;;;21.72;44.37;99832.75;5038943;28;20098;-66
2023/04/22 10:25:22;;;;;;;3.38;1.45;;;;;;;21.54;44.06;99831.34;5046388;28;20025;-66
2023/04/22 10:28:04;;;;;;;3.83;1.60;;;;;;;21.49;44.37;99841.34;5034128;28;20048;-66
2023/04/22 10:30:35;;;;;;;3.13;1.42;;;;;;;21.62;44.16;99836.94;5035861;28;20029;-66
2023/04/22 10:33:19;;;;;;;3.58;1.38;;;;;;;21.73;44.85;99851.06;5041879;28;20041;-66
2023/04/22 10:36:13;;;;;;;5.25;1.60;;;;;;;21.85;44.57;99846.72;5038698;28;20024;-66
2023/04/22 10:38:53;;;;;;;5.55;1.55;;;;;;;22.04;43.15;99807.66;5037426;28;20100;-66
2023/04/22 10:41:28;;;;;;;4.65;1.58;;;;;;;22.20;42.79;99817.97;5057297;28;20549;-65
2023/04/22 10:43:57;;;;;;;2.97;1.58;;;;;;;22.23;43.60;99826.47;5026903;28;20606;-63
2023/04/22 10:46:38;;;;;;;7.13;1.40;;;;;;;22.08;42.38;99830.19;5034821;28;20061;-63
2023/04/22 10:49:12;;;;;;;3.90;1.60;;;;;;;22.04;43.93;99855.03;5035025;28;20040;-63
2023/04/22 10:51:45;;;;;;;3.75;1.50;;;;;;;21.95;43.43;99849.56;5037188;28;20098;-63
2023/04/22 10:57:05;;;;;;;4.05;1.42;;;;;;;21.76;44.28;99866.63;5054841;28;20032;-66
2023/04/22 10:59:33;;;;;;;2.80;1.33;;;;;;;21.87;43.55;99859.78;5042981;28;20784;-65
2023/04/22 11:02:04;;;;;;;5.38;1.70;;;;;;;22.05;43.24;99851.47;5039396;28;20044;-66
2023/04/22 11:04:30;;;;;;;3.90;1.60;;;;;;;22.27;42.31;99834.97;5043590;28;20470;-66
2023/04/22 11:07:15;;;;;;;4.65;1.70;;;;;;;22.49;42.58;99845.72;5041829;28;20033;-66
2023/04/22 11:09:42;;;;;;;;;;;;;;;22.64;41.90;99831.44;5041167;28;20069;-66
2023/04/22 11:12:42;;;;;;;3.35;1.40;;;;;;;22.78;41.86;99839.16;5043351;28;20271;-66
2023/04/22 11:15:13;;;;;;;4.32;1.67;;;;;;;22.84;41.85;99836.09;5031914;28;20037;-66
2023/04/22 11:17:42;;;;;;;2.20;1.50;;;;;;;22.82;42.47;99851.19;5042979;28;20041;-67
2023/04/22 11:20:08;;;;;;;2.90;1.80;;;;;;;22.87;41.18;99829.75;5040245;28;20761;-66
2023/04/22 11:22:35;;;;;;;4.25;1.70;;;;;;;22.83;41.58;99838.81;5041770;28;20040;-66
2023/04/22 11:25:02;;;;;;;3.47;1.70;;;;;;;22.73;41.81;99849.22;5036816;28;20490;-66
2023/04/22 11:27:29;;;;;;;2.67;1.70;;;;;;;22.87;41.69;99854.31;5039892;28;20075;-66